createdAt,value
2022-11-29T00:03:02.589Z,103573.19
2022-11-29T00:08:05.281Z,103576.50
2022-11-29T00:13:07.818Z,103573.41
2022-11-29T00:18:10.315Z,103567.91
2022-11-29T00:23:12.900Z,103567.63
2022-11-29T00:28:15.468Z,103576.63
2022-11-29T00:33:17.995Z,103578.63
2022-11-29T00:38:20.577Z,103579.19
2022-11-29T00:43:23.148Z,103577.97
2022-11-29T00:48:25.680Z,103572.34
2022-11-29T00:53:29.906Z,103577.97
2022-11-29T00:58:33.018Z,103573.50
2022-11-29T01:03:35.654Z,103590.09
2022-11-29T01:08:39.061Z,103592.13
2022-11-29T01:13:41.784Z,103587.63
2022-11-29T01:18:44.858Z,103607.16
2022-11-29T01:23:47.899Z,103611.94
2022-11-29T01:28:52.023Z,103620.66
2022-11-29T01:34:00.026Z,103613.84
2022-11-29T01:39:04.761Z,103603.22
2022-11-29T01:44:07.280Z,103610.09
2022-11-29T01:49:17.603Z,103609.22
2022-11-29T01:54:22.160Z,103611.38
2022-11-29T01:59:28.163Z,103599.41
2022-11-29T02:04:35.978Z,103606.56
2022-11-29T02:09:38.656Z,103606.97
2022-11-29T02:14:47.239Z,103609.50
2022-11-29T02:20:27.349Z,103612.94
2022-11-29T02:25:59.948Z,103617.44
2022-11-29T02:31:26.940Z,103613.00
2022-11-29T02:36:52.587Z,103611.84
2022-11-29T02:42:24.107Z,103623.75
2022-11-29T02:47:38.865Z,103616.97
2022-11-29T02:52:55.324Z,103621.50
2022-11-29T02:58:26.271Z,103622.41
2022-11-29T03:03:43.796Z,103627.16
2022-11-29T03:09:11.184Z,103638.53
2022-11-29T03:14:48.915Z,103635.16
2022-11-29T03:20:04.047Z,103619.81
2022-11-29T03:25:22.951Z,103655.06
2022-11-29T03:30:25.549Z,103664.91
2022-11-29T03:35:38.041Z,103653.97
2022-11-29T03:41:01.535Z,103663.16
2022-11-29T03:46:11.681Z,103669.09
2022-11-29T03:51:23.863Z,103667.75
2022-11-29T03:56:29.449Z,103651.97
2022-11-29T04:01:37.863Z,103686.22
2022-11-29T04:06:59.166Z,103686.22
2022-11-29T04:12:40.786Z,103697.19
2022-11-29T04:18:07.416Z,103699.56
2022-11-29T04:23:31.003Z,103711.63
2022-11-29T04:28:54.487Z,103715.44
2022-11-29T04:34:11.754Z,103704.97
2022-11-29T04:39:26.921Z,103718.06
2022-11-29T04:44:50.962Z,103718.75
2022-11-29T04:50:10.655Z,103715.06
2022-11-29T04:55:27.690Z,103728.34
2022-11-29T05:00:46.064Z,103726.69
2022-11-29T05:06:01.173Z,103742.59
2022-11-29T05:11:27.476Z,103743.66
2022-11-29T05:17:02.040Z,103756.13
2022-11-29T05:22:55.062Z,103759.66
2022-11-29T05:28:10.230Z,103769.06
2022-11-29T05:33:31.406Z,103773.16
2022-11-29T05:38:39.667Z,103774.41
2022-11-29T05:44:13.268Z,103776.03
2022-11-29T05:49:30.730Z,103769.69
2022-11-29T05:54:41.813Z,103780.38
2022-11-29T05:59:47.784Z,103775.13
2022-11-29T06:05:13.870Z,103776.50
2022-11-29T06:10:19.485Z,103786.56
2022-11-29T06:15:52.944Z,103769.44
2022-11-29T06:21:07.415Z,103780.72
2022-11-29T06:26:34.479Z,103776.72
2022-11-29T06:31:43.806Z,103777.72
2022-11-29T06:36:54.802Z,103781.31
2022-11-29T06:41:57.326Z,103776.47
2022-11-29T06:47:26.819Z,103789.50
2022-11-29T06:52:29.323Z,103795.72
2022-11-29T06:57:50.103Z,103804.69
2022-11-29T07:03:20.937Z,103797.63
2022-11-29T07:08:24.778Z,103811.28
2022-11-29T07:13:27.573Z,103820.78
2022-11-29T07:19:04.139Z,103816.25
2022-11-29T07:24:06.904Z,103818.50
2022-11-29T07:29:33.454Z,103805.81
2022-11-29T07:34:41.816Z,103812.31
2022-11-29T07:39:52.060Z,103822.00
2022-11-29T07:45:06.936Z,103815.22
2022-11-29T07:50:14.074Z,103812.97
2022-11-29T07:55:21.788Z,103811.03
2022-11-29T08:00:24.281Z,103813.00
2022-11-29T08:05:27.469Z,103808.31
2022-11-29T08:10:29.985Z,103810.69
2022-11-29T08:15:32.533Z,103793.88
2022-11-29T08:20:35.981Z,103809.31
2022-11-29T08:25:39.350Z,103800.50
2022-11-29T08:30:41.885Z,103805.22
2022-11-29T08:35:44.378Z,103795.63
2022-11-29T08:40:47.044Z,103799.47
2022-11-29T08:45:52.763Z,103790.56
2022-11-29T08:50:56.744Z,103791.06
2022-11-29T08:56:00.355Z,103800.16
2022-11-29T09:01:03.085Z,103798.72
2022-11-29T09:06:12.646Z,103797.41
2022-11-29T09:11:18.165Z,103794.75
2022-11-29T09:16:25.628Z,103793.53
2022-11-29T09:21:30.842Z,103795.03
2022-11-29T09:26:36.360Z,103791.78
2022-11-29T09:31:38.932Z,103790.28
2022-11-29T09:36:43.336Z,103774.63
2022-11-29T09:42:01.645Z,103776.44
2022-11-29T09:47:22.812Z,103773.25
2022-11-29T09:53:13.019Z,103768.31
2022-11-29T09:58:25.198Z,103761.31
2022-11-29T10:03:36.670Z,103758.13
2022-11-29T10:08:46.729Z,103755.66
2022-11-29T10:13:54.704Z,103759.25
2022-11-29T10:19:05.151Z,103758.53
2022-11-29T10:24:20.489Z,103750.47
2022-11-29T10:29:24.131Z,103742.88
2022-11-29T10:34:28.772Z,103747.31
2022-11-29T10:39:40.357Z,103753.44
2022-11-29T10:44:42.990Z,103744.06
2022-11-29T10:49:45.724Z,103736.41
2022-11-29T10:54:50.724Z,103731.38
2022-11-29T11:00:13.755Z,103746.03
2022-11-29T11:05:26.876Z,103748.50
2022-11-29T11:10:33.596Z,103750.53
2022-11-29T11:15:37.717Z,103738.16
2022-11-29T11:20:42.758Z,103761.72
2022-11-29T11:25:46.584Z,103739.00
2022-11-29T11:30:59.701Z,103747.78
2022-11-29T11:36:20.917Z,103746.31
2022-11-29T11:41:48.011Z,103743.81
2022-11-29T11:46:52.243Z,103752.22
2022-11-29T11:51:54.991Z,103762.59
2022-11-29T11:56:58.381Z,103771.34
2022-11-29T12:02:01.845Z,103770.25
2022-11-29T12:07:51.920Z,103773.75
2022-11-29T12:12:52.654Z,103775.13
2022-11-29T12:18:31.216Z,103784.69
2022-11-29T12:23:45.831Z,103787.25
2022-11-29T12:28:48.633Z,103783.41
2022-11-29T12:34:03.014Z,103792.09
2022-11-29T12:39:17.911Z,103785.22
2022-11-29T12:44:38.816Z,103778.84
2022-11-29T12:49:55.646Z,103781.25
2022-11-29T12:55:17.940Z,103775.78
2022-11-29T13:00:21.549Z,103776.34
2022-11-29T13:05:34.806Z,103786.59
2022-11-29T13:10:43.414Z,103797.59
2022-11-29T13:15:50.274Z,103793.81
2022-11-29T13:21:05.025Z,103789.13
2022-11-29T13:26:12.697Z,103804.78
2022-11-29T13:31:19.748Z,103814.00
2022-11-29T13:36:22.229Z,103818.25
2022-11-29T13:41:43.654Z,103828.66
2022-11-29T13:46:49.952Z,103823.13
2022-11-29T13:52:05.694Z,103806.50
2022-11-29T13:57:10.095Z,103816.00
2022-11-29T14:02:32.035Z,103814.06
2022-11-29T14:07:41.982Z,103797.19
2022-11-29T14:12:55.348Z,103815.59
2022-11-29T14:18:02.698Z,103812.16
2022-11-29T14:23:05.242Z,103825.63
2022-11-29T14:28:29.747Z,103833.56
2022-11-29T14:33:47.434Z,103837.88
2022-11-29T14:39:02.061Z,103853.94
2022-11-29T14:44:20.747Z,103836.66
2022-11-29T14:49:25.934Z,103850.81
2022-11-29T14:54:28.788Z,103863.00
2022-11-29T14:59:43.765Z,103872.69
2022-11-29T15:04:48.363Z,103876.59
2022-11-29T15:09:51.832Z,103874.03
2022-11-29T15:15:00.272Z,103884.19
2022-11-29T15:20:44.032Z,103893.38
2022-11-29T15:25:50.579Z,103895.75
2022-11-29T15:31:11.506Z,103898.38
2022-11-29T15:36:17.148Z,103895.78
2022-11-29T15:41:31.399Z,103884.53
2022-11-29T15:46:35.778Z,103900.59
2022-11-29T15:51:39.584Z,103914.63
2022-11-29T15:56:49.590Z,103916.25
2022-11-29T16:01:56.330Z,103920.50
2022-11-29T16:06:59.102Z,103921.25
2022-11-29T16:12:02.447Z,103921.84
2022-11-29T16:17:05.692Z,103940.75
2022-11-29T16:22:11.400Z,103939.41
2022-11-29T16:27:15.163Z,103942.00
2022-11-29T16:32:32.966Z,103943.91
2022-11-29T16:37:45.807Z,103939.06
2022-11-29T16:43:20.938Z,103954.53
2022-11-29T16:48:23.472Z,103949.53
2022-11-29T16:53:37.662Z,103942.97
2022-11-29T16:59:25.348Z,103949.63
2022-11-29T17:04:03.849Z,103960.69
2022-11-29T17:09:06.502Z,103961.81
2022-11-29T17:14:09.875Z,103958.94
2022-11-29T17:19:13.978Z,103958.06
2022-11-29T17:24:19.317Z,103965.50
2022-11-29T17:29:21.939Z,103977.06
2022-11-29T17:34:24.509Z,103973.56
2022-11-29T17:39:27.272Z,103979.59
2022-11-29T17:44:29.932Z,103965.34
2022-11-29T17:49:32.601Z,103973.69
2022-11-29T17:54:36.298Z,103967.66
2022-11-29T17:59:39.028Z,103978.31
2022-11-29T18:04:42.997Z,103980.66
2022-11-29T18:09:47.058Z,103988.06
2022-11-29T18:14:51.157Z,103987.09
2022-11-29T18:19:53.679Z,103982.66
2022-11-29T18:25:10.021Z,103980.97
2022-11-29T18:30:18.700Z,103990.25
2022-11-29T18:35:21.219Z,104005.47
2022-11-29T18:40:23.816Z,104004.91
2022-11-29T18:45:26.320Z,103995.84
2022-11-29T18:50:28.822Z,104009.22
2022-11-29T18:55:31.424Z,104004.91
2022-11-29T19:00:33.966Z,104001.78
2022-11-29T19:05:36.478Z,103994.69
2022-11-29T19:10:38.989Z,103997.91
2022-11-29T19:15:41.538Z,103983.28
2022-11-29T19:20:44.041Z,103992.59
2022-11-29T19:25:46.689Z,104004.91
2022-11-29T19:30:55.815Z,104002.72
2022-11-29T19:36:04.721Z,103989.03
2022-11-29T19:41:15.288Z,104002.03
2022-11-29T19:46:21.027Z,103994.41
2022-11-29T19:51:24.737Z,104001.25
2022-11-29T19:56:28.061Z,104004.78
2022-11-29T20:01:39.777Z,104012.34
2022-11-29T20:06:44.843Z,104010.53
2022-11-29T20:11:47.298Z,104009.56
2022-11-29T20:16:50.936Z,104011.47
2022-11-29T20:21:53.373Z,103978.94
2022-11-29T20:26:56.003Z,104012.22
2022-11-29T20:31:58.988Z,104014.66
2022-11-29T20:37:36.488Z,104012.56
2022-11-29T20:42:57.571Z,104013.66
2022-11-29T20:48:22.453Z,104018.53
2022-11-29T20:53:43.422Z,104013.25
2022-11-29T20:58:45.888Z,104034.38
2022-11-29T21:03:48.550Z,104018.28
2022-11-29T21:08:51.478Z,104023.94
2022-11-29T21:13:54.356Z,104016.63
2022-11-29T21:19:02.646Z,104025.50
2022-11-29T21:24:14.332Z,104030.03
2022-11-29T21:29:20.115Z,104037.66
2022-11-29T21:34:22.778Z,104045.25
2022-11-29T21:39:33.406Z,104038.53
2022-11-29T21:44:36.054Z,104031.06
2022-11-29T21:49:38.900Z,104043.00
2022-11-29T21:54:41.383Z,104042.13
2022-11-29T21:59:43.855Z,104033.00
2022-11-29T22:04:46.621Z,104037.94
2022-11-29T22:09:49.658Z,104029.34
2022-11-29T22:14:52.311Z,104026.25
2022-11-29T22:19:54.789Z,104034.81
2022-11-29T22:24:57.312Z,104021.25
2022-11-29T22:29:59.836Z,104022.94
2022-11-29T22:35:02.367Z,104018.78
2022-11-29T22:40:06.634Z,104022.94
2022-11-29T22:45:09.402Z,104018.47
2022-11-29T22:50:12.342Z,104011.22
2022-11-29T22:55:14.813Z,104017.09
2022-11-29T23:00:17.423Z,104024.13
2022-11-29T23:05:19.895Z,104017.34
2022-11-29T23:10:22.365Z,104020.44
2022-11-29T23:15:24.991Z,104025.66
2022-11-29T23:20:27.527Z,104019.38
2022-11-29T23:25:30.282Z,104032.44
2022-11-29T23:30:33.035Z,104022.53
2022-11-29T23:35:35.562Z,104020.91
2022-11-29T23:40:38.058Z,104022.16
2022-11-29T23:45:40.678Z,104020.38
2022-11-29T23:50:43.988Z,104007.72
2022-11-29T23:55:55.355Z,104012.88
